Flight Track Log - Related Links

Times and Time Zones

All times are in EDT time to prevent confusion due to time zone crossing. See the SKW5535 flight status page for this flight to view local times or setup timezone preferences in your user account.

Time Position Orientation Groundspeed Altitude Reporting Facility
EDT Latitude Longitude Course Direction KTS MPH feet Rate Location/Type
Sun 03:45:18 PM 46.8389 -114.0689 130° Southeast 246 283 6,500  Level Salt Lake Center
Sun 03:46:20 PM 46.7833 -114.0406 161° South 228 262 8,500 1,548 Climbing Salt Lake Center
Sun 03:47:00 PM 46.4912 -113.9657 126° Southeast  Level FlightAware Approximate
Sun 03:47:22 PM 46.7314 -113.9531 131° Southeast 267 307 9,700  Level Salt Lake Center
Sun 03:48:00 PM 46.4179 -113.8432 139° Southeast  Level FlightAware Approximate
Sun 03:48:24 PM 46.6747 -113.8589 131° Southeast 310 357 11,400  Level Salt Lake Center
Sun 03:49:00 PM 46.3480 -113.7188 131° Southeast  Level FlightAware Approximate
Sun 03:49:26 PM 46.6131 -113.7561 131° Southeast 314 361 13,700  Level Salt Lake Center
Sun 03:50:00 PM 46.2768 -113.5928 130° Southeast  Level FlightAware Approximate
Sun 03:50:28 PM 46.5511 -113.6661 135° Southeast 316 364 15,700  Level Salt Lake Center
Sun 03:51:30 PM 46.4672 -113.5942 149° Southeast 326 375 16,800 1,161 Climbing Salt Lake Center
Sun 03:52:32 PM 46.3992 -113.4972 135° Southeast 343 395 18,100 1,306 Climbing Salt Lake Center
Sun 03:53:34 PM 46.3383 -113.3894 129° Southeast 344 396 19,500 1,355 Climbing Salt Lake Center
Sun 03:54:36 PM 46.2717 -113.2797 131° Southeast 347 399 20,900 1,248 Climbing Salt Lake Center
Sun 03:55:39 PM 46.2111 -113.1783 131° Southeast 346 398 22,100 1,104 Climbing Salt Lake Center
Sun 03:56:41 PM 46.1553 -113.0650 125° Southeast 347 399 23,200 1,016 Climbing Salt Lake Center
Sun 03:57:43 PM 46.1089 -112.9367 118° Southeast 357 411 24,200 1,016 Climbing Salt Lake Center
Sun 03:58:45 PM 46.0556 -112.7839 117° Southeast 358 412 25,300 774 Climbing Salt Lake Center
Sun 03:59:47 PM 45.9997 -112.6597 123° Southeast 368 423 25,800 532 Climbing Salt Lake Center
Sun 04:00:49 PM 45.9422 -112.5314 123° Southeast 380 437 26,400 581 Climbing Salt Lake Center
Sun 04:01:51 PM 45.8853 -112.4003 122° Southeast 386 444 27,000 532 Climbing Salt Lake Center
Sun 04:02:53 PM 45.8281 -112.2664 121° Southeast 393 452 27,500 484 Climbing Salt Lake Center
Sun 04:03:55 PM 45.7689 -112.1294 122° Southeast 404 465 28,000 774 Climbing Salt Lake Center
Sun 04:04:57 PM 45.7231 -111.9478 110° East 409 471 29,100 968 Climbing Salt Lake Center
Sun 04:05:59 PM 45.6750 -111.8106 117° Southeast 390 449 30,000 484 Climbing Salt Lake Center
Sun 04:07:01 PM 45.6053 -111.6958 131° Southeast 386 444 30,100 242 Climbing Salt Lake Center
Sun 04:08:03 PM 45.5228 -111.5950 139° Southeast 393 452 30,500 484 Climbing Salt Lake Center
Sun 04:09:05 PM 45.4356 -111.4997 143° Southeast 398 458 31,100 484 Climbing Salt Lake Center
Sun 04:10:07 PM 45.3294 -111.3836 142° Southeast 403 464 31,500 339 Climbing Salt Lake Center
Sun 04:11:09 PM 45.2411 -111.2856 142° Southeast 405 466 31,800 339 Climbing Salt Lake Center
Sun 04:12:11 PM 45.1531 -111.1811 140° Southeast 411 473 32,200 435 Climbing Salt Lake Center
Sun 04:13:13 PM 45.0644 -111.0631 137° Southeast 415 478 32,700 387 Climbing Salt Lake Center
Sun 04:14:15 PM 44.9878 -110.9503 134° Southeast 415 478 33,000 145 Climbing Salt Lake Center
Sun 04:15:17 PM 44.8964 -110.8167 134° Southeast 421 484 33,000  Level Salt Lake Center
Sun 04:16:19 PM 44.8150 -110.7008 135° Southeast 429 494 33,000  Level Salt Lake Center
Sun 04:17:22 PM 44.7192 -110.5633 134° Southeast 438 504 33,000  Level Salt Lake Center
Sun 04:18:24 PM 44.6367 -110.4433 134° Southeast 443 510 33,000  Level Salt Lake Center
Sun 04:19:26 PM 44.5383 -110.3044 135° Southeast 446 513 33,000  Level Salt Lake Center
Sun 04:20:28 PM 44.4542 -110.1850 135° Southeast 449 517 33,000  Level Salt Lake Center
Sun 04:21:30 PM 44.3694 -110.0664 135° Southeast 449 517 33,000  Level Salt Lake Center
Sun 04:22:32 PM 44.2708 -109.9258 134° Southeast 452 520 33,000  Level Salt Lake Center
Sun 04:23:34 PM 44.1853 -109.8083 135° Southeast 450 518 33,000  Level Salt Lake Center
Sun 04:24:36 PM 44.0886 -109.6708 134° Southeast 446 513 33,000  Level Salt Lake Center
Sun 04:25:38 PM 44.0017 -109.5528 136° Southeast 454 522 33,000  Level Salt Lake Center
Sun 04:26:40 PM 43.9033 -109.4156 135° Southeast 450 518 33,000  Level Salt Lake Center
Sun 04:27:42 PM 43.8167 -109.2997 136° Southeast 452 520 33,000  Level Salt Lake Center
Sun 04:28:44 PM 43.7183 -109.1625 135° Southeast 450 518 33,000  Level Salt Lake Center
Sun 04:29:46 PM 43.6286 -109.0419 136° Southeast 454 522 33,000  Level Salt Lake Center
Sun 04:30:48 PM 43.5425 -108.9264 136° Southeast 451 519 33,000  Level Salt Lake Center
Sun 04:31:50 PM 43.4425 -108.7906 135° Southeast 451 519 33,000  Level Salt Lake Center
Sun 04:32:52 PM 43.3550 -108.6764 136° Southeast 452 520 33,000  Level Salt Lake Center
Sun 04:33:54 PM 43.2542 -108.5400 135° Southeast 454 522 33,000  Level Salt Lake Center
Sun 04:34:56 PM 43.1678 -108.4236 135° Southeast 455 524 33,000  Level Salt Lake Center
Sun 04:35:58 PM 43.0661 -108.2900 136° Southeast 455 524 33,000  Level Salt Lake Center
Sun 04:37:00 PM 42.9786 -108.1744 136° Southeast 456 525 33,000  Level Salt Lake Center
Sun 04:38:02 PM 42.8767 -108.0397 136° Southeast 456 525 33,000  Level Salt Lake Center
Sun 04:39:04 PM 42.7881 -107.9256 137° Southeast 457 526 33,000  Level Salt Lake Center
Sun 04:40:07 PM 42.6853 -107.7928 136° Southeast 456 525 33,000  Level Salt Lake Center
Sun 04:41:09 PM 42.5981 -107.6767 136° Southeast 457 526 33,000  Level Salt Lake Center
Sun 04:42:11 PM 42.4953 -107.5444 136° Southeast 457 526 33,000  Level Salt Lake Center
Sun 04:43:13 PM 42.4064 -107.4306 137° Southeast 457 526 33,000  Level Salt Lake Center
Sun 04:44:15 PM 42.3183 -107.3181 137° Southeast 456 525 33,000  Level Salt Lake Center
Sun 04:45:17 PM 42.2144 -107.1864 137° Southeast 457 526 33,000  Level Salt Lake Center
Sun 04:46:19 PM 42.1253 -107.0733 137° Southeast 458 527 33,000  Level Salt Lake Center
Sun 04:47:21 PM 42.0208 -106.9411 137° Southeast 460 529 33,000  Level Salt Lake Center
Sun 04:48:23 PM 41.9539 -106.7994 122° Southeast 472 543 33,000  Level Salt Lake Center
Sun 04:49:25 PM 41.9428 -106.6289 95° East 461 531 33,000  Level Salt Lake Center
Sun 04:50:27 PM 41.9453 -106.4439 89° East 446 513 33,000  Level Salt Lake Center
Sun 04:51:29 PM 41.9456 -106.2886 90° East 438 504 33,000  Level Salt Lake Center
Sun 04:52:31 PM 41.9461 -106.1097 90° East 432 497 33,000  Level Salt Lake Center
Sun 04:53:33 PM 41.9442 -105.9558 91° East 433 498 33,000  Level Salt Lake Center
Sun 04:54:44 PM 41.9431 -105.7522 90° East 427 491 33,000  Level Denver Center
Sun 04:55:46 PM 41.9378 -105.5981 93° East 432 497 33,000  Level Denver Center
Sun 04:56:48 PM 41.9072 -105.4233 103° East 434 499 33,000  Level Denver Center
Sun 04:57:50 PM 41.8811 -105.2703 103° East 436 502 33,000  Level Denver Center
Sun 04:58:52 PM 41.8542 -105.0919 101° East 442 509 33,000  Level Denver Center
Sun 04:59:54 PM 41.8531 -104.9325 90° East 448 516 33,000  Level Denver Center
Sun 05:00:56 PM 41.7764 -104.7858 125° Southeast 442 509 33,000  Level Denver Center
Sun 05:01:58 PM 41.7000 -104.6664 131° Southeast 439 505 33,000  Level Denver Center
Sun 05:03:00 PM 41.6094 -104.5286 131° Southeast 443 510 33,000  Level Denver Center
Sun 05:04:02 PM 41.5314 -104.4111 132° Southeast 442 509 33,000 -48 Level Denver Center
Sun 05:05:04 PM 41.4417 -104.2731 131° Southeast 442 509 32,900 -484 Descending Denver Center
Sun 05:06:06 PM 41.3633 -104.1558 132° Southeast 444 511 32,000 -919 Descending Denver Center
Sun 05:07:08 PM 41.2719 -104.0206 132° Southeast 442 509 31,000 -484 Descending Denver Center
Sun 05:08:10 PM 41.1953 -103.9061 132° Southeast 435 501 31,000 -290 Level Denver Center
Sun 05:09:12 PM 41.1172 -103.7900 132° Southeast 439 505 30,400 -484 Descending Denver Center
Sun 05:10:14 PM 41.0217 -103.6506 132° Southeast 456 525 30,000 -290 Descending Denver Center
Sun 05:11:16 PM 40.9161 -103.5406 142° Southeast 464 534 29,800 -768 Descending Denver Center
Sun 05:12:19 PM 40.8000 -103.5711 191° South 432 497 28,400 -1,248 Descending Denver Center
Sun 05:13:21 PM 40.6908 -103.6256 201° Southwest 418 481 27,200 -1,161 Descending Denver Center
Sun 05:14:23 PM 40.5889 -103.6875 205° Southwest 407 468 26,000 -1,210 Descending Denver Center
Sun 05:15:25 PM 40.5114 -103.7939 226° Southwest 402 463 24,700 -1,355 Descending Denver Center
Sun 05:16:27 PM 40.4222 -103.9133 226° Southwest 403 464 23,200 -1,500 Descending Denver Center
Sun 05:17:29 PM 40.3514 -104.0092 226° Southwest 339 390 21,600 -1,548 Descending Denver Center
Sun 05:18:31 PM 40.2814 -104.0869 220° Southwest 329 379 20,000 -1,597 Descending Denver Center
Sun 05:19:33 PM 40.2108 -104.1625 219° Southwest 329 379 18,300 -1,548 Descending Denver Center
Sun 05:20:35 PM 40.1381 -104.2425 220° Southwest 316 364 16,800 -1,403 Descending Denver Center
Sun 05:21:37 PM 40.0739 -104.3156 221° Southwest 306 352 15,400 -1,161 Descending Denver Center
Sun 05:22:39 PM 40.0014 -104.3900 218° Southwest 308 354 14,400 -1,016 Descending Denver Center
Sun 05:23:41 PM 39.9372 -104.4594 220° Southwest 300 345 13,300 -1,161 Descending Denver Center
Sun 05:24:43 PM 39.8636 -104.4989 202° Southwest 271 312 12,000 -1,113 Descending Denver Center
Sun 05:25:45 PM 39.7911 -104.5008 181° South 261 300 11,000 -1,016 Descending Denver Center
Sun 05:26:47 PM 39.7225 -104.5039 182° South 247 284 9,900 -1,104 Descending Denver Center
Sun 05:27:50 PM 39.6628 -104.5478 210° Southwest 242 278 8,700 -960 Descending Denver Center
Sun 05:28:52 PM 39.6989 -104.6064 309° West 228 262 7,900 -823 Descending Denver Center
Sun 05:29:54 PM 39.7553 -104.6394 336° Northwest 205 236 7,000 -919 Descending Denver Center
Sun 05:30:56 PM 39.8008 -104.6417 358° North 161 185 6,000 -774 Descending Denver Center
Sun 05:31:58 PM 39.8431 -104.6411 North 156 180 5,400 -581 Descending Denver Center

Login

Don't have an account? Register now (free) for customized features, flight alerts, and more!